sensor_id;sensor_type;location;lat;lon;timestamp;P1;durP1;ratioP1;P2;durP2;ratioP2
59366;SDS011;45163;47.690;11.770;2023-07-31T00:00:49;139.27;;;130.83;;
59366;SDS011;45163;47.690;11.770;2023-07-31T00:03:15;108.97;;;102.40;;
59366;SDS011;45163;47.690;11.770;2023-07-31T00:05:41;86.33;;;81.13;;
59366;SDS011;45163;47.690;11.770;2023-07-31T00:08:07;80.07;;;75.07;;
59366;SDS011;45163;47.690;11.770;2023-07-31T00:10:33;75.83;;;71.07;;
59366;SDS011;45163;47.690;11.770;2023-07-31T00:12:59;70.00;;;65.73;;
59366;SDS011;45163;47.690;11.770;2023-07-31T00:15:25;70.97;;;66.33;;
59366;SDS011;45163;47.690;11.770;2023-07-31T00:17:51;73.87;;;69.53;;
59366;SDS011;45163;47.690;11.770;2023-07-31T00:20:17;95.37;;;89.90;;
59366;SDS011;45163;47.690;11.770;2023-07-31T00:22:43;123.90;;;116.83;;
59366;SDS011;45163;47.690;11.770;2023-07-31T00:25:09;134.20;;;126.47;;
59366;SDS011;45163;47.690;11.770;2023-07-31T00:27:35;128.17;;;120.87;;
59366;SDS011;45163;47.690;11.770;2023-07-31T00:30:01;141.30;;;132.93;;
59366;SDS011;45163;47.690;11.770;2023-07-31T00:32:27;121.63;;;114.00;;
59366;SDS011;45163;47.690;11.770;2023-07-31T00:34:53;137.67;;;128.63;;
59366;SDS011;45163;47.690;11.770;2023-07-31T00:37:18;152.13;;;141.80;;
59366;SDS011;45163;47.690;11.770;2023-07-31T00:39:44;161.90;;;151.03;;
59366;SDS011;45163;47.690;11.770;2023-07-31T00:42:10;162.93;;;152.00;;
59366;SDS011;45163;47.690;11.770;2023-07-31T00:44:36;169.97;;;158.60;;
59366;SDS011;45163;47.690;11.770;2023-07-31T00:47:02;165.23;;;153.83;;
59366;SDS011;45163;47.690;11.770;2023-07-31T00:49:28;154.00;;;143.20;;
59366;SDS011;45163;47.690;11.770;2023-07-31T00:51:54;174.87;;;162.33;;
59366;SDS011;45163;47.690;11.770;2023-07-31T00:54:23;177.33;;;164.83;;
59366;SDS011;45163;47.690;11.770;2023-07-31T00:56:49;186.23;;;173.13;;
59366;SDS011;45163;47.690;11.770;2023-07-31T00:59:18;150.17;;;139.77;;
59366;SDS011;45163;47.690;11.770;2023-07-31T01:01:44;160.17;;;148.70;;
59366;SDS011;45163;47.690;11.770;2023-07-31T01:04:11;164.00;;;152.17;;
59366;SDS011;45163;47.690;11.770;2023-07-31T01:06:48;146.07;;;135.87;;
59366;SDS011;45163;47.690;11.770;2023-07-31T01:11:56;127.67;;;119.67;;
59366;SDS011;45163;47.690;11.770;2023-07-31T01:14:25;119.60;;;112.13;;
59366;SDS011;45163;47.690;11.770;2023-07-31T01:16:51;118.87;;;111.83;;
59366;SDS011;45163;47.690;11.770;2023-07-31T01:19:17;106.00;;;99.77;;
59366;SDS011;45163;47.690;11.770;2023-07-31T01:24:54;102.40;;;96.33;;
59366;SDS011;45163;47.690;11.770;2023-07-31T01:27:46;93.43;;;87.90;;
59366;SDS011;45163;47.690;11.770;2023-07-31T01:30:21;99.33;;;93.37;;
59366;SDS011;45163;47.690;11.770;2023-07-31T01:32:52;87.83;;;82.67;;
59366;SDS011;45163;47.690;11.770;2023-07-31T01:35:20;95.33;;;89.63;;
59366;SDS011;45163;47.690;11.770;2023-07-31T01:37:46;95.20;;;89.60;;
59366;SDS011;45163;47.690;11.770;2023-07-31T01:40:12;90.17;;;84.80;;
59366;SDS011;45163;47.690;11.770;2023-07-31T01:42:38;88.20;;;83.03;;
59366;SDS011;45163;47.690;11.770;2023-07-31T01:45:04;96.37;;;90.87;;
59366;SDS011;45163;47.690;11.770;2023-07-31T01:47:31;97.93;;;92.33;;
59366;SDS011;45163;47.690;11.770;2023-07-31T01:49:57;110.83;;;104.50;;
59366;SDS011;45163;47.690;11.770;2023-07-31T01:52:23;108.60;;;102.30;;
59366;SDS011;45163;47.690;11.770;2023-07-31T01:54:49;126.60;;;119.10;;
59366;SDS011;45163;47.690;11.770;2023-07-31T01:57:15;132.53;;;124.73;;
59366;SDS011;45163;47.690;11.770;2023-07-31T01:59:41;138.53;;;130.47;;
59366;SDS011;45163;47.690;11.770;2023-07-31T02:02:07;134.17;;;126.30;;
59366;SDS011;45163;47.690;11.770;2023-07-31T02:04:33;130.77;;;123.13;;
59366;SDS011;45163;47.690;11.770;2023-07-31T02:06:59;131.97;;;124.20;;
59366;SDS011;45163;47.690;11.770;2023-07-31T02:09:25;137.10;;;129.13;;
59366;SDS011;45163;47.690;11.770;2023-07-31T02:11:51;134.93;;;127.07;;
59366;SDS011;45163;47.690;11.770;2023-07-31T02:14:17;132.10;;;124.33;;
59366;SDS011;45163;47.690;11.770;2023-07-31T02:16:43;131.70;;;124.03;;
59366;SDS011;45163;47.690;11.770;2023-07-31T02:19:09;130.57;;;123.00;;
59366;SDS011;45163;47.690;11.770;2023-07-31T02:21:35;128.97;;;121.33;;
59366;SDS011;45163;47.690;11.770;2023-07-31T02:24:01;115.53;;;108.77;;
59366;SDS011;45163;47.690;11.770;2023-07-31T02:26:27;114.47;;;107.73;;
59366;SDS011;45163;47.690;11.770;2023-07-31T02:28:53;114.80;;;108.07;;
59366;SDS011;45163;47.690;11.770;2023-07-31T02:31:19;108.40;;;102.03;;
59366;SDS011;45163;47.690;11.770;2023-07-31T02:33:45;107.07;;;100.77;;
59366;SDS011;45163;47.690;11.770;2023-07-31T02:36:11;111.17;;;104.57;;
59366;SDS011;45163;47.690;11.770;2023-07-31T02:38:37;112.20;;;105.50;;
59366;SDS011;45163;47.690;11.770;2023-07-31T02:41:03;105.37;;;98.93;;
59366;SDS011;45163;47.690;11.770;2023-07-31T02:43:28;105.37;;;98.87;;
59366;SDS011;45163;47.690;11.770;2023-07-31T02:45:54;102.43;;;95.87;;
59366;SDS011;45163;47.690;11.770;2023-07-31T02:48:20;105.83;;;99.23;;
59366;SDS011;45163;47.690;11.770;2023-07-31T02:50:47;110.83;;;104.00;;
59366;SDS011;45163;47.690;11.770;2023-07-31T02:53:13;115.13;;;107.93;;
59366;SDS011;45163;47.690;11.770;2023-07-31T02:55:39;109.43;;;102.43;;
59366;SDS011;45163;47.690;11.770;2023-07-31T02:58:05;106.77;;;100.07;;
59366;SDS011;45163;47.690;11.770;2023-07-31T03:00:31;98.13;;;92.10;;
59366;SDS011;45163;47.690;11.770;2023-07-31T03:02:57;105.63;;;99.23;;
59366;SDS011;45163;47.690;11.770;2023-07-31T03:05:23;98.50;;;92.73;;
59366;SDS011;45163;47.690;11.770;2023-07-31T03:07:49;91.57;;;86.13;;
59366;SDS011;45163;47.690;11.770;2023-07-31T03:10:15;90.50;;;85.30;;
59366;SDS011;45163;47.690;11.770;2023-07-31T03:12:41;87.53;;;82.63;;
59366;SDS011;45163;47.690;11.770;2023-07-31T03:15:07;74.97;;;70.83;;
59366;SDS011;45163;47.690;11.770;2023-07-31T03:17:33;70.97;;;67.03;;
59366;SDS011;45163;47.690;11.770;2023-07-31T03:19:59;69.80;;;65.83;;
59366;SDS011;45163;47.690;11.770;2023-07-31T03:22:25;59.70;;;56.20;;
59366;SDS011;45163;47.690;11.770;2023-07-31T03:24:51;62.37;;;58.77;;
59366;SDS011;45163;47.690;11.770;2023-07-31T03:27:18;54.37;;;51.17;;
59366;SDS011;45163;47.690;11.770;2023-07-31T03:29:44;52.17;;;49.17;;
59366;SDS011;45163;47.690;11.770;2023-07-31T03:32:10;47.33;;;44.53;;
59366;SDS011;45163;47.690;11.770;2023-07-31T03:34:36;44.73;;;42.13;;
59366;SDS011;45163;47.690;11.770;2023-07-31T03:37:02;48.70;;;45.90;;
59366;SDS011;45163;47.690;11.770;2023-07-31T03:39:28;48.13;;;45.23;;
59366;SDS011;45163;47.690;11.770;2023-07-31T03:41:54;55.47;;;52.23;;
59366;SDS011;45163;47.690;11.770;2023-07-31T03:44:20;47.43;;;44.40;;
59366;SDS011;45163;47.690;11.770;2023-07-31T03:46:45;49.83;;;46.93;;
59366;SDS011;45163;47.690;11.770;2023-07-31T03:49:11;45.20;;;42.50;;
59366;SDS011;45163;47.690;11.770;2023-07-31T03:51:37;44.43;;;41.77;;
59366;SDS011;45163;47.690;11.770;2023-07-31T03:54:03;45.37;;;42.70;;
59366;SDS011;45163;47.690;11.770;2023-07-31T03:56:29;43.47;;;40.87;;
59366;SDS011;45163;47.690;11.770;2023-07-31T03:58:55;54.07;;;50.83;;
59366;SDS011;45163;47.690;11.770;2023-07-31T04:01:21;49.73;;;46.83;;
59366;SDS011;45163;47.690;11.770;2023-07-31T04:03:47;46.73;;;43.93;;
59366;SDS011;45163;47.690;11.770;2023-07-31T04:06:13;47.63;;;44.73;;
59366;SDS011;45163;47.690;11.770;2023-07-31T04:08:43;45.77;;;43.00;;
59366;SDS011;45163;47.690;11.770;2023-07-31T04:11:10;45.67;;;42.87;;
59366;SDS011;45163;47.690;11.770;2023-07-31T04:13:38;43.53;;;40.97;;
59366;SDS011;45163;47.690;11.770;2023-07-31T04:16:04;42.70;;;40.10;;
59366;SDS011;45163;47.690;11.770;2023-07-31T04:18:30;51.90;;;48.73;;
59366;SDS011;45163;47.690;11.770;2023-07-31T04:20:57;45.30;;;42.60;;
59366;SDS011;45163;47.690;11.770;2023-07-31T04:23:24;44.60;;;41.90;;
59366;SDS011;45163;47.690;11.770;2023-07-31T04:25:51;45.13;;;42.30;;
59366;SDS011;45163;47.690;11.770;2023-07-31T04:28:17;48.47;;;45.50;;
59366;SDS011;45163;47.690;11.770;2023-07-31T04:30:43;51.60;;;48.43;;
59366;SDS011;45163;47.690;11.770;2023-07-31T04:33:09;43.87;;;41.00;;
59366;SDS011;45163;47.690;11.770;2023-07-31T04:35:35;45.77;;;42.93;;
59366;SDS011;45163;47.690;11.770;2023-07-31T04:38:01;48.70;;;45.60;;
59366;SDS011;45163;47.690;11.770;2023-07-31T04:40:27;55.03;;;51.57;;
59366;SDS011;45163;47.690;11.770;2023-07-31T04:42:53;53.13;;;49.67;;
59366;SDS011;45163;47.690;11.770;2023-07-31T04:45:19;49.13;;;45.93;;
59366;SDS011;45163;47.690;11.770;2023-07-31T04:47:45;53.93;;;50.40;;
59366;SDS011;45163;47.690;11.770;2023-07-31T04:50:11;50.00;;;46.80;;
59366;SDS011;45163;47.690;11.770;2023-07-31T04:52:37;60.03;;;56.20;;
59366;SDS011;45163;47.690;11.770;2023-07-31T04:55:03;71.83;;;67.53;;
59366;SDS011;45163;47.690;11.770;2023-07-31T04:57:29;81.60;;;76.90;;
59366;SDS011;45163;47.690;11.770;2023-07-31T04:59:55;106.90;;;101.03;;
59366;SDS011;45163;47.690;11.770;2023-07-31T05:02:21;116.07;;;109.27;;
59366;SDS011;45163;47.690;11.770;2023-07-31T05:04:47;115.33;;;108.93;;
59366;SDS011;45163;47.690;11.770;2023-07-31T05:07:13;117.23;;;110.63;;
59366;SDS011;45163;47.690;11.770;2023-07-31T05:09:39;121.77;;;114.97;;
59366;SDS011;45163;47.690;11.770;2023-07-31T05:12:05;109.70;;;103.63;;
59366;SDS011;45163;47.690;11.770;2023-07-31T05:14:31;107.33;;;101.30;;
59366;SDS011;45163;47.690;11.770;2023-07-31T05:16:57;90.63;;;85.33;;
59366;SDS011;45163;47.690;11.770;2023-07-31T05:19:23;70.57;;;66.37;;
59366;SDS011;45163;47.690;11.770;2023-07-31T05:21:49;68.37;;;64.27;;
59366;SDS011;45163;47.690;11.770;2023-07-31T05:24:15;51.80;;;48.60;;
59366;SDS011;45163;47.690;11.770;2023-07-31T05:26:41;44.40;;;41.83;;
59366;SDS011;45163;47.690;11.770;2023-07-31T05:29:07;56.33;;;52.97;;
59366;SDS011;45163;47.690;11.770;2023-07-31T05:31:33;71.57;;;67.47;;
59366;SDS011;45163;47.690;11.770;2023-07-31T05:33:59;72.83;;;68.53;;
59366;SDS011;45163;47.690;11.770;2023-07-31T05:36:25;70.13;;;65.93;;
59366;SDS011;45163;47.690;11.770;2023-07-31T05:38:50;52.70;;;49.53;;
59366;SDS011;45163;47.690;11.770;2023-07-31T05:41:16;46.13;;;43.57;;
59366;SDS011;45163;47.690;11.770;2023-07-31T05:43:43;51.17;;;48.27;;
59366;SDS011;45163;47.690;11.770;2023-07-31T05:46:09;39.07;;;36.83;;
59366;SDS011;45163;47.690;11.770;2023-07-31T05:48:37;36.47;;;34.40;;
59366;SDS011;45163;47.690;11.770;2023-07-31T05:51:03;33.47;;;31.57;;
59366;SDS011;45163;47.690;11.770;2023-07-31T05:53:29;39.83;;;37.57;;
59366;SDS011;45163;47.690;11.770;2023-07-31T05:55:55;64.00;;;60.33;;
59366;SDS011;45163;47.690;11.770;2023-07-31T05:58:21;75.53;;;71.20;;
59366;SDS011;45163;47.690;11.770;2023-07-31T06:00:47;56.40;;;52.67;;
59366;SDS011;45163;47.690;11.770;2023-07-31T06:03:13;70.37;;;65.67;;
59366;SDS011;45163;47.690;11.770;2023-07-31T06:05:39;77.13;;;72.37;;
59366;SDS011;45163;47.690;11.770;2023-07-31T06:08:05;80.07;;;75.33;;
59366;SDS011;45163;47.690;11.770;2023-07-31T06:10:31;101.50;;;95.67;;
59366;SDS011;45163;47.690;11.770;2023-07-31T06:12:57;103.73;;;97.63;;
59366;SDS011;45163;47.690;11.770;2023-07-31T06:15:23;84.20;;;79.30;;
59366;SDS011;45163;47.690;11.770;2023-07-31T06:17:49;55.27;;;51.93;;
59366;SDS011;45163;47.690;11.770;2023-07-31T06:20:15;52.87;;;49.77;;
59366;SDS011;45163;47.690;11.770;2023-07-31T06:22:41;87.63;;;82.73;;
59366;SDS011;45163;47.690;11.770;2023-07-31T06:25:07;64.83;;;61.03;;
59366;SDS011;45163;47.690;11.770;2023-07-31T06:27:33;55.23;;;52.03;;
59366;SDS011;45163;47.690;11.770;2023-07-31T06:29:59;64.83;;;61.13;;
59366;SDS011;45163;47.690;11.770;2023-07-31T06:32:24;49.93;;;47.03;;
59366;SDS011;45163;47.690;11.770;2023-07-31T06:34:50;40.97;;;38.57;;
59366;SDS011;45163;47.690;11.770;2023-07-31T06:37:16;47.53;;;44.80;;
59366;SDS011;45163;47.690;11.770;2023-07-31T06:39:42;48.10;;;45.33;;
59366;SDS011;45163;47.690;11.770;2023-07-31T06:42:08;37.07;;;35.00;;
59366;SDS011;45163;47.690;11.770;2023-07-31T06:44:34;31.80;;;29.90;;
59366;SDS011;45163;47.690;11.770;2023-07-31T06:47:00;49.07;;;46.27;;
59366;SDS011;45163;47.690;11.770;2023-07-31T06:49:26;51.73;;;48.70;;
59366;SDS011;45163;47.690;11.770;2023-07-31T06:51:52;94.53;;;88.87;;
59366;SDS011;45163;47.690;11.770;2023-07-31T06:54:18;101.00;;;95.10;;
59366;SDS011;45163;47.690;11.770;2023-07-31T06:56:44;36.00;;;34.00;;
59366;SDS011;45163;47.690;11.770;2023-07-31T06:59:10;17.33;;;16.20;;
59366;SDS011;45163;47.690;11.770;2023-07-31T07:01:36;28.43;;;26.77;;
59366;SDS011;45163;47.690;11.770;2023-07-31T07:04:02;74.50;;;70.27;;
59366;SDS011;45163;47.690;11.770;2023-07-31T07:06:28;59.60;;;56.03;;
59366;SDS011;45163;47.690;11.770;2023-07-31T07:08:54;86.67;;;81.60;;
59366;SDS011;45163;47.690;11.770;2023-07-31T07:11:20;134.17;;;126.63;;
59366;SDS011;45163;47.690;11.770;2023-07-31T07:13:46;138.90;;;130.93;;
59366;SDS011;45163;47.690;11.770;2023-07-31T07:16:12;131.50;;;123.57;;
59366;SDS011;45163;47.690;11.770;2023-07-31T07:18:38;68.93;;;65.03;;
59366;SDS011;45163;47.690;11.770;2023-07-31T07:21:04;47.43;;;44.80;;
59366;SDS011;45163;47.690;11.770;2023-07-31T07:23:30;37.50;;;35.33;;
59366;SDS011;45163;47.690;11.770;2023-07-31T07:25:56;25.20;;;23.80;;
59366;SDS011;45163;47.690;11.770;2023-07-31T07:28:22;23.93;;;22.53;;
59366;SDS011;45163;47.690;11.770;2023-07-31T07:30:51;27.30;;;25.80;;
59366;SDS011;45163;47.690;11.770;2023-07-31T07:33:19;28.73;;;27.13;;
59366;SDS011;45163;47.690;11.770;2023-07-31T07:35:45;25.80;;;24.23;;
59366;SDS011;45163;47.690;11.770;2023-07-31T07:38:11;27.60;;;26.00;;
59366;SDS011;45163;47.690;11.770;2023-07-31T07:40:40;39.17;;;36.92;;
59366;SDS011;45163;47.690;11.770;2023-07-31T07:43:06;51.65;;;48.67;;
59366;SDS011;45163;47.690;11.770;2023-07-31T07:45:32;34.42;;;32.50;;
59366;SDS011;45163;47.690;11.770;2023-07-31T07:47:58;17.58;;;16.58;;
59366;SDS011;45163;47.690;11.770;2023-07-31T07:50:24;11.77;;;11.02;;
59366;SDS011;45163;47.690;11.770;2023-07-31T07:52:50;20.40;;;19.27;;
59366;SDS011;45163;47.690;11.770;2023-07-31T07:55:16;45.85;;;43.17;;
59366;SDS011;45163;47.690;11.770;2023-07-31T07:57:42;30.50;;;28.70;;
59366;SDS011;45163;47.690;11.770;2023-07-31T08:00:10;21.40;;;20.23;;
59366;SDS011;45163;47.690;11.770;2023-07-31T08:02:37;26.35;;;24.83;;
59366;SDS011;45163;47.690;11.770;2023-07-31T08:05:03;41.08;;;38.75;;
59366;SDS011;45163;47.690;11.770;2023-07-31T08:07:29;104.00;;;97.85;;
59366;SDS011;45163;47.690;11.770;2023-07-31T08:09:55;121.07;;;114.43;;
59366;SDS011;45163;47.690;11.770;2023-07-31T08:12:21;76.95;;;72.57;;
59366;SDS011;45163;47.690;11.770;2023-07-31T08:14:47;56.17;;;53.08;;
59366;SDS011;45163;47.690;11.770;2023-07-31T08:17:13;40.67;;;38.40;;
59366;SDS011;45163;47.690;11.770;2023-07-31T08:19:39;50.72;;;47.90;;
59366;SDS011;45163;47.690;11.770;2023-07-31T08:22:05;34.75;;;32.72;;
59366;SDS011;45163;47.690;11.770;2023-07-31T08:24:31;32.55;;;30.55;;
59366;SDS011;45163;47.690;11.770;2023-07-31T08:26:57;56.90;;;53.70;;
59366;SDS011;45163;47.690;11.770;2023-07-31T08:29:23;30.58;;;28.85;;
59366;SDS011;45163;47.690;11.770;2023-07-31T08:31:50;26.65;;;25.25;;
59366;SDS011;45163;47.690;11.770;2023-07-31T08:34:16;24.95;;;23.60;;
59366;SDS011;45163;47.690;11.770;2023-07-31T08:36:42;21.02;;;19.90;;
59366;SDS011;45163;47.690;11.770;2023-07-31T08:39:08;26.40;;;24.92;;
59366;SDS011;45163;47.690;11.770;2023-07-31T08:41:37;57.15;;;54.00;;
59366;SDS011;45163;47.690;11.770;2023-07-31T08:44:07;36.00;;;34.05;;
59366;SDS011;45163;47.690;11.770;2023-07-31T08:46:33;21.20;;;20.02;;
59366;SDS011;45163;47.690;11.770;2023-07-31T08:49:00;19.80;;;18.70;;
59366;SDS011;45163;47.690;11.770;2023-07-31T08:51:30;21.25;;;20.02;;
59366;SDS011;45163;47.690;11.770;2023-07-31T08:53:56;28.13;;;26.58;;
59366;SDS011;45163;47.690;11.770;2023-07-31T08:56:23;28.85;;;27.27;;
59366;SDS011;45163;47.690;11.770;2023-07-31T08:58:49;35.47;;;33.58;;
59366;SDS011;45163;47.690;11.770;2023-07-31T09:01:17;24.10;;;22.73;;
59366;SDS011;45163;47.690;11.770;2023-07-31T09:03:43;19.80;;;18.75;;
59366;SDS011;45163;47.690;11.770;2023-07-31T09:06:10;11.75;;;11.05;;
59366;SDS011;45163;47.690;11.770;2023-07-31T09:08:39;21.15;;;20.00;;
59366;SDS011;45163;47.690;11.770;2023-07-31T09:11:08;77.28;;;73.05;;
59366;SDS011;45163;47.690;11.770;2023-07-31T09:13:34;113.63;;;107.47;;
59366;SDS011;45163;47.690;11.770;2023-07-31T09:16:00;76.15;;;72.00;;
59366;SDS011;45163;47.690;11.770;2023-07-31T09:18:25;41.50;;;39.20;;
59366;SDS011;45163;47.690;11.770;2023-07-31T09:21:04;40.22;;;37.80;;
59366;SDS011;45163;47.690;11.770;2023-07-31T09:23:44;38.58;;;36.42;;
59366;SDS011;45163;47.690;11.770;2023-07-31T09:29:04;79.65;;;75.40;;
59366;SDS011;45163;47.690;11.770;2023-07-31T09:31:40;95.35;;;90.18;;
59366;SDS011;45163;47.690;11.770;2023-07-31T09:34:07;51.40;;;48.50;;
59366;SDS011;45163;47.690;11.770;2023-07-31T09:36:43;70.57;;;66.65;;
59366;SDS011;45163;47.690;11.770;2023-07-31T09:39:11;49.10;;;46.33;;
59366;SDS011;45163;47.690;11.770;2023-07-31T09:41:39;56.75;;;53.40;;
59366;SDS011;45163;47.690;11.770;2023-07-31T09:44:06;56.97;;;53.80;;
59366;SDS011;45163;47.690;11.770;2023-07-31T09:46:34;34.38;;;32.50;;
59366;SDS011;45163;47.690;11.770;2023-07-31T09:51:31;73.90;;;69.83;;
59366;SDS011;45163;47.690;11.770;2023-07-31T09:53:58;37.08;;;35.05;;
59366;SDS011;45163;47.690;11.770;2023-07-31T09:56:24;35.42;;;33.53;;
59366;SDS011;45163;47.690;11.770;2023-07-31T09:58:51;59.97;;;56.60;;
59366;SDS011;45163;47.690;11.770;2023-07-31T10:01:19;46.03;;;43.33;;
59366;SDS011;45163;47.690;11.770;2023-07-31T10:03:45;49.92;;;47.08;;
59366;SDS011;45163;47.690;11.770;2023-07-31T10:06:11;79.80;;;75.30;;
59366;SDS011;45163;47.690;11.770;2023-07-31T10:08:42;32.58;;;30.77;;
59366;SDS011;45163;47.690;11.770;2023-07-31T10:11:12;22.90;;;21.60;;
59366;SDS011;45163;47.690;11.770;2023-07-31T10:13:39;23.05;;;21.80;;
59366;SDS011;45163;47.690;11.770;2023-07-31T10:16:07;23.48;;;22.13;;
59366;SDS011;45163;47.690;11.770;2023-07-31T10:18:34;21.95;;;20.75;;
59366;SDS011;45163;47.690;11.770;2023-07-31T10:21:01;35.20;;;33.30;;
59366;SDS011;45163;47.690;11.770;2023-07-31T10:23:27;53.42;;;50.42;;
59366;SDS011;45163;47.690;11.770;2023-07-31T10:25:55;50.70;;;47.85;;
59366;SDS011;45163;47.690;11.770;2023-07-31T10:28:22;51.20;;;48.33;;
59366;SDS011;45163;47.690;11.770;2023-07-31T10:30:50;61.63;;;58.22;;
59366;SDS011;45163;47.690;11.770;2023-07-31T10:33:17;39.42;;;37.22;;
59366;SDS011;45163;47.690;11.770;2023-07-31T10:35:47;47.40;;;44.80;;
59366;SDS011;45163;47.690;11.770;2023-07-31T10:38:13;34.33;;;32.35;;
59366;SDS011;45163;47.690;11.770;2023-07-31T10:40:40;15.50;;;14.70;;
59366;SDS011;45163;47.690;11.770;2023-07-31T10:43:06;18.05;;;17.05;;
59366;SDS011;45163;47.690;11.770;2023-07-31T10:45:35;16.02;;;15.13;;
59366;SDS011;45163;47.690;11.770;2023-07-31T10:48:06;21.05;;;19.92;;
59366;SDS011;45163;47.690;11.770;2023-07-31T10:50:38;22.33;;;21.02;;
59366;SDS011;45163;47.690;11.770;2023-07-31T10:53:04;19.20;;;18.00;;
59366;SDS011;45163;47.690;11.770;2023-07-31T10:58:07;21.17;;;19.73;;
59366;SDS011;45163;47.690;11.770;2023-07-31T11:00:37;9.50;;;8.98;;
59366;SDS011;45163;47.690;11.770;2023-07-31T11:10:37;60.42;;;57.13;;
59366;SDS011;45163;47.690;11.770;2023-07-31T11:13:04;82.38;;;78.03;;
59366;SDS011;45163;47.690;11.770;2023-07-31T11:15:30;73.53;;;69.57;;
59366;SDS011;45163;47.690;11.770;2023-07-31T11:17:56;83.78;;;79.28;;
59366;SDS011;45163;47.690;11.770;2023-07-31T11:20:26;71.45;;;67.53;;
59366;SDS011;45163;47.690;11.770;2023-07-31T11:22:52;49.83;;;47.00;;
59366;SDS011;45163;47.690;11.770;2023-07-31T11:25:18;33.22;;;31.38;;
59366;SDS011;45163;47.690;11.770;2023-07-31T11:27:44;45.90;;;43.30;;
59366;SDS011;45163;47.690;11.770;2023-07-31T11:30:11;33.97;;;31.98;;
59366;SDS011;45163;47.690;11.770;2023-07-31T11:32:37;32.92;;;31.02;;
59366;SDS011;45163;47.690;11.770;2023-07-31T11:35:03;33.53;;;31.63;;
59366;SDS011;45163;47.690;11.770;2023-07-31T11:37:41;53.63;;;50.47;;
59366;SDS011;45163;47.690;11.770;2023-07-31T11:40:07;62.33;;;58.85;;
59366;SDS011;45163;47.690;11.770;2023-07-31T11:42:34;35.67;;;33.67;;
59366;SDS011;45163;47.690;11.770;2023-07-31T11:45:04;49.20;;;46.45;;
59366;SDS011;45163;47.690;11.770;2023-07-31T11:47:34;42.17;;;39.80;;
59366;SDS011;45163;47.690;11.770;2023-07-31T11:50:05;44.15;;;41.60;;
59366;SDS011;45163;47.690;11.770;2023-07-31T11:52:34;31.35;;;29.63;;
59366;SDS011;45163;47.690;11.770;2023-07-31T11:55:04;79.55;;;75.40;;
59366;SDS011;45163;47.690;11.770;2023-07-31T11:57:32;127.57;;;120.88;;
59366;SDS011;45163;47.690;11.770;2023-07-31T12:00:09;181.10;;;171.73;;
59366;SDS011;45163;47.690;11.770;2023-07-31T12:02:36;120.95;;;114.60;;
59366;SDS011;45163;47.690;11.770;2023-07-31T12:05:06;97.90;;;92.65;;
59366;SDS011;45163;47.690;11.770;2023-07-31T12:07:45;68.20;;;64.47;;
59366;SDS011;45163;47.690;11.770;2023-07-31T12:10:24;45.42;;;42.92;;
59366;SDS011;45163;47.690;11.770;2023-07-31T12:13:03;44.03;;;41.65;;
59366;SDS011;45163;47.690;11.770;2023-07-31T12:15:30;36.90;;;34.88;;
59366;SDS011;45163;47.690;11.770;2023-07-31T12:18:15;28.42;;;26.88;;
59366;SDS011;45163;47.690;11.770;2023-07-31T12:20:46;24.00;;;22.70;;
59366;SDS011;45163;47.690;11.770;2023-07-31T12:23:17;79.85;;;75.50;;
59366;SDS011;45163;47.690;11.770;2023-07-31T12:25:59;129.77;;;122.97;;
59366;SDS011;45163;47.690;11.770;2023-07-31T12:28:26;240.38;;;227.70;;
59366;SDS011;45163;47.690;11.770;2023-07-31T12:30:52;228.30;;;215.43;;
59366;SDS011;45163;47.690;11.770;2023-07-31T12:33:23;191.95;;;181.23;;
59366;SDS011;45163;47.690;11.770;2023-07-31T12:35:49;317.67;;;298.67;;
59366;SDS011;45163;47.690;11.770;2023-07-31T12:38:15;242.52;;;227.15;;
59366;SDS011;45163;47.690;11.770;2023-07-31T12:40:41;268.23;;;251.25;;
59366;SDS011;45163;47.690;11.770;2023-07-31T12:43:07;265.67;;;248.82;;
59366;SDS011;45163;47.690;11.770;2023-07-31T12:45:34;319.95;;;299.63;;
59366;SDS011;45163;47.690;11.770;2023-07-31T12:48:01;379.73;;;356.05;;
59366;SDS011;45163;47.690;11.770;2023-07-31T12:50:27;397.98;;;372.92;;
59366;SDS011;45163;47.690;11.770;2023-07-31T12:52:53;319.40;;;300.42;;
59366;SDS011;45163;47.690;11.770;2023-07-31T12:55:21;277.17;;;261.67;;
59366;SDS011;45163;47.690;11.770;2023-07-31T12:57:48;298.98;;;282.30;;
59366;SDS011;45163;47.690;11.770;2023-07-31T13:00:15;292.40;;;275.63;;
59366;SDS011;45163;47.690;11.770;2023-07-31T13:02:41;259.88;;;245.93;;
59366;SDS011;45163;47.690;11.770;2023-07-31T13:05:08;288.35;;;272.45;;
59366;SDS011;45163;47.690;11.770;2023-07-31T13:07:34;305.42;;;288.38;;
59366;SDS011;45163;47.690;11.770;2023-07-31T13:10:00;324.85;;;306.80;;
59366;SDS011;45163;47.690;11.770;2023-07-31T13:12:26;290.70;;;274.13;;
59366;SDS011;45163;47.690;11.770;2023-07-31T13:14:52;234.60;;;221.80;;
59366;SDS011;45163;47.690;11.770;2023-07-31T13:17:18;251.15;;;237.45;;
59366;SDS011;45163;47.690;11.770;2023-07-31T13:19:44;313.90;;;296.40;;
59366;SDS011;45163;47.690;11.770;2023-07-31T13:22:10;311.35;;;294.00;;
59366;SDS011;45163;47.690;11.770;2023-07-31T13:24:36;228.82;;;216.48;;
59366;SDS011;45163;47.690;11.770;2023-07-31T13:27:02;241.40;;;228.25;;
59366;SDS011;45163;47.690;11.770;2023-07-31T13:29:29;230.52;;;218.00;;
59366;SDS011;45163;47.690;11.770;2023-07-31T13:31:57;62.40;;;58.97;;
59366;SDS011;45163;47.690;11.770;2023-07-31T13:34:26;55.70;;;52.70;;
59366;SDS011;45163;47.690;11.770;2023-07-31T13:36:53;201.95;;;191.15;;
59366;SDS011;45163;47.690;11.770;2023-07-31T13:39:20;103.20;;;97.47;;
59366;SDS011;45163;47.690;11.770;2023-07-31T13:41:46;16.08;;;15.18;;
59366;SDS011;45163;47.690;11.770;2023-07-31T13:44:12;18.95;;;17.92;;
59366;SDS011;45163;47.690;11.770;2023-07-31T13:46:38;16.23;;;15.32;;
59366;SDS011;45163;47.690;11.770;2023-07-31T13:49:04;12.93;;;12.13;;
59366;SDS011;45163;47.690;11.770;2023-07-31T13:51:29;8.55;;;8.05;;
59366;SDS011;45163;47.690;11.770;2023-07-31T13:53:56;20.10;;;19.00;;
59366;SDS011;45163;47.690;11.770;2023-07-31T13:56:21;32.10;;;30.35;;
59366;SDS011;45163;47.690;11.770;2023-07-31T13:58:47;60.97;;;57.53;;
59366;SDS011;45163;47.690;11.770;2023-07-31T14:01:13;79.30;;;74.80;;
59366;SDS011;45163;47.690;11.770;2023-07-31T14:03:39;96.30;;;90.85;;
59366;SDS011;45163;47.690;11.770;2023-07-31T14:06:05;89.65;;;84.35;;
59366;SDS011;45163;47.690;11.770;2023-07-31T14:08:31;57.30;;;53.92;;
59366;SDS011;45163;47.690;11.770;2023-07-31T14:10:57;41.63;;;39.33;;
59366;SDS011;45163;47.690;11.770;2023-07-31T14:13:23;33.33;;;31.52;;
59366;SDS011;45163;47.690;11.770;2023-07-31T14:15:49;46.97;;;44.42;;
59366;SDS011;45163;47.690;11.770;2023-07-31T14:18:15;52.40;;;49.55;;
59366;SDS011;45163;47.690;11.770;2023-07-31T14:20:41;47.63;;;44.97;;